sensor_id;sensor_type;location;lat;lon;timestamp;pressure;altitude;pressure_sealevel;temperature;humidity
29247;BME280;16272;48.188;9.964;2023-04-01T00:00:19;94627.63;;;7.02;80.24
29247;BME280;16272;48.188;9.964;2023-04-01T00:02:44;94642.97;;;6.98;80.07
29247;BME280;16272;48.188;9.964;2023-04-01T00:05:10;94639.63;;;6.88;80.83
29247;BME280;16272;48.188;9.964;2023-04-01T00:07:37;94637.03;;;6.96;80.08
29247;BME280;16272;48.188;9.964;2023-04-01T00:10:04;94627.31;;;7.05;79.56
29247;BME280;16272;48.188;9.964;2023-04-01T00:12:30;94619.31;;;6.88;80.66
29247;BME280;16272;48.188;9.964;2023-04-01T00:14:55;94605.06;;;6.73;81.47
29247;BME280;16272;48.188;9.964;2023-04-01T00:17:20;94632.97;;;6.84;81.15
29247;BME280;16272;48.188;9.964;2023-04-01T00:19:46;94643.88;;;6.80;82.46
29247;BME280;16272;48.188;9.964;2023-04-01T00:22:11;94634.97;;;6.55;83.20
29247;BME280;16272;48.188;9.964;2023-04-01T00:24:38;94625.72;;;6.77;82.29
29247;BME280;16272;48.188;9.964;2023-04-01T00:27:03;94630.16;;;6.77;82.22
29247;BME280;16272;48.188;9.964;2023-04-01T00:29:29;94625.06;;;6.84;81.21
29247;BME280;16272;48.188;9.964;2023-04-01T00:31:56;94624.22;;;6.75;80.96
29247;BME280;16272;48.188;9.964;2023-04-01T00:34:22;94625.41;;;6.80;81.08
29247;BME280;16272;48.188;9.964;2023-04-01T00:36:48;94628.06;;;6.80;80.86
29247;BME280;16272;48.188;9.964;2023-04-01T00:39:14;94627.44;;;6.95;80.02
29247;BME280;16272;48.188;9.964;2023-04-01T00:41:39;94634.88;;;6.99;80.07
29247;BME280;16272;48.188;9.964;2023-04-01T00:44:16;94628.31;;;6.69;81.47
29247;BME280;16272;48.188;9.964;2023-04-01T00:46:43;94609.16;;;6.67;80.67
29247;BME280;16272;48.188;9.964;2023-04-01T00:49:09;94619.81;;;6.92;80.28
29247;BME280;16272;48.188;9.964;2023-04-01T00:51:36;94622.03;;;6.70;80.26
29247;BME280;16272;48.188;9.964;2023-04-01T00:54:03;94620.47;;;6.51;80.77
29247;BME280;16272;48.188;9.964;2023-04-01T00:56:35;94615.25;;;6.33;81.58
29247;BME280;16272;48.188;9.964;2023-04-01T00:59:07;94611.41;;;6.54;81.03
29247;BME280;16272;48.188;9.964;2023-04-01T01:01:34;94617.97;;;6.50;80.32
29247;BME280;16272;48.188;9.964;2023-04-01T01:04:00;94614.44;;;6.67;80.33
29247;BME280;16272;48.188;9.964;2023-04-01T01:06:39;94607.78;;;6.55;80.10
29247;BME280;16272;48.188;9.964;2023-04-01T01:09:14;94601.97;;;6.77;79.51
29247;BME280;16272;48.188;9.964;2023-04-01T01:12:09;94618.28;;;6.47;80.19
29247;BME280;16272;48.188;9.964;2023-04-01T01:14:45;94609.84;;;6.69;79.56
29247;BME280;16272;48.188;9.964;2023-04-01T01:17:23;94613.16;;;6.71;79.35
29247;BME280;16272;48.188;9.964;2023-04-01T01:25:18;94607.13;;;6.53;79.81
29247;BME280;16272;48.188;9.964;2023-04-01T01:31:20;94616.25;;;6.40;79.31
29247;BME280;16272;48.188;9.964;2023-04-01T01:34:35;94607.94;;;6.27;79.72
29247;BME280;16272;48.188;9.964;2023-04-01T01:37:05;94612.50;;;6.69;78.09
29247;BME280;16272;48.188;9.964;2023-04-01T01:39:34;94610.31;;;6.38;78.90
29247;BME280;16272;48.188;9.964;2023-04-01T01:42:04;94610.16;;;6.40;78.57
29247;BME280;16272;48.188;9.964;2023-04-01T01:44:31;94607.75;;;6.47;77.97
29247;BME280;16272;48.188;9.964;2023-04-01T01:46:59;94604.53;;;6.61;77.99
29247;BME280;16272;48.188;9.964;2023-04-01T01:49:25;94611.16;;;6.73;77.74
29247;BME280;16272;48.188;9.964;2023-04-01T01:51:52;94615.69;;;6.55;77.61
29247;BME280;16272;48.188;9.964;2023-04-01T01:54:18;94605.00;;;6.91;76.67
29247;BME280;16272;48.188;9.964;2023-04-01T01:56:47;94605.84;;;6.65;77.00
29247;BME280;16272;48.188;9.964;2023-04-01T01:59:15;94601.63;;;6.72;77.31
29247;BME280;16272;48.188;9.964;2023-04-01T02:01:48;94598.66;;;6.49;77.70
29247;BME280;16272;48.188;9.964;2023-04-01T02:04:15;94609.50;;;6.64;77.50
29247;BME280;16272;48.188;9.964;2023-04-01T02:06:47;94605.66;;;6.32;77.61
29247;BME280;16272;48.188;9.964;2023-04-01T02:09:17;94610.13;;;6.32;77.94
29247;BME280;16272;48.188;9.964;2023-04-01T02:11:48;94606.91;;;6.20;78.12
29247;BME280;16272;48.188;9.964;2023-04-01T02:14:17;94610.41;;;6.02;78.98
29247;BME280;16272;48.188;9.964;2023-04-01T02:16:53;94604.59;;;6.17;78.22
29247;BME280;16272;48.188;9.964;2023-04-01T02:19:24;94610.22;;;6.22;77.89
29247;BME280;16272;48.188;9.964;2023-04-01T02:21:55;94604.22;;;6.12;77.44
29247;BME280;16272;48.188;9.964;2023-04-01T02:24:23;94603.50;;;5.92;77.45
29247;BME280;16272;48.188;9.964;2023-04-01T02:26:51;94615.22;;;6.07;77.19
29247;BME280;16272;48.188;9.964;2023-04-01T02:29:19;94615.16;;;5.99;78.09
29247;BME280;16272;48.188;9.964;2023-04-01T02:31:46;94618.00;;;6.05;78.35
29247;BME280;16272;48.188;9.964;2023-04-01T02:34:12;94607.41;;;5.97;78.29
29247;BME280;16272;48.188;9.964;2023-04-01T02:36:38;94611.22;;;5.85;78.83
29247;BME280;16272;48.188;9.964;2023-04-01T02:39:05;94606.47;;;6.06;77.96
29247;BME280;16272;48.188;9.964;2023-04-01T02:41:30;94609.59;;;6.02;78.30
29247;BME280;16272;48.188;9.964;2023-04-01T02:43:56;94594.06;;;5.81;78.81
29247;BME280;16272;48.188;9.964;2023-04-01T02:46:23;94606.09;;;6.01;78.02
29247;BME280;16272;48.188;9.964;2023-04-01T02:48:49;94618.13;;;5.86;79.39
29247;BME280;16272;48.188;9.964;2023-04-01T02:51:14;94614.69;;;6.03;78.03
29247;BME280;16272;48.188;9.964;2023-04-01T02:53:39;94609.34;;;5.95;79.76
29247;BME280;16272;48.188;9.964;2023-04-01T02:56:05;94612.66;;;5.97;79.99
29247;BME280;16272;48.188;9.964;2023-04-01T02:58:30;94605.50;;;6.07;79.70
29247;BME280;16272;48.188;9.964;2023-04-01T03:00:55;94604.31;;;5.84;81.53
29247;BME280;16272;48.188;9.964;2023-04-01T03:03:21;94620.84;;;6.12;81.06
29247;BME280;16272;48.188;9.964;2023-04-01T03:05:46;94614.88;;;6.28;79.73
29247;BME280;16272;48.188;9.964;2023-04-01T03:08:11;94625.31;;;6.38;80.38
29247;BME280;16272;48.188;9.964;2023-04-01T03:10:37;94614.22;;;6.08;81.93
29247;BME280;16272;48.188;9.964;2023-04-01T03:13:02;94626.75;;;6.32;81.52
29247;BME280;16272;48.188;9.964;2023-04-01T03:15:28;94625.16;;;5.95;83.04
29247;BME280;16272;48.188;9.964;2023-04-01T03:17:53;94615.41;;;5.96;82.67
29247;BME280;16272;48.188;9.964;2023-04-01T03:20:18;94617.22;;;6.13;82.93
29247;BME280;16272;48.188;9.964;2023-04-01T03:22:45;94612.28;;;6.10;83.22
29247;BME280;16272;48.188;9.964;2023-04-01T03:25:11;94612.66;;;5.97;83.27
29247;BME280;16272;48.188;9.964;2023-04-01T03:27:37;94606.91;;;6.46;81.05
29247;BME280;16272;48.188;9.964;2023-04-01T03:30:04;94620.94;;;6.47;81.67
29247;BME280;16272;48.188;9.964;2023-04-01T03:32:29;94614.34;;;6.24;82.02
29247;BME280;16272;48.188;9.964;2023-04-01T03:34:55;94613.06;;;6.55;81.48
29247;BME280;16272;48.188;9.964;2023-04-01T03:37:20;94619.56;;;6.42;82.60
29247;BME280;16272;48.188;9.964;2023-04-01T03:39:46;94618.06;;;6.14;83.48
29247;BME280;16272;48.188;9.964;2023-04-01T03:42:11;94618.78;;;6.50;82.12
29247;BME280;16272;48.188;9.964;2023-04-01T03:44:37;94609.91;;;6.25;82.41
29247;BME280;16272;48.188;9.964;2023-04-01T03:47:02;94605.16;;;6.55;81.38
29247;BME280;16272;48.188;9.964;2023-04-01T03:49:28;94607.75;;;6.47;81.36
29247;BME280;16272;48.188;9.964;2023-04-01T03:51:53;94610.56;;;6.53;80.44
29247;BME280;16272;48.188;9.964;2023-04-01T03:54:20;94611.50;;;6.44;81.98
29247;BME280;16272;48.188;9.964;2023-04-01T03:56:46;94623.56;;;6.47;81.31
29247;BME280;16272;48.188;9.964;2023-04-01T03:59:11;94620.88;;;6.38;80.57
29247;BME280;16272;48.188;9.964;2023-04-01T04:01:37;94621.06;;;6.19;82.21
29247;BME280;16272;48.188;9.964;2023-04-01T04:04:02;94618.06;;;6.14;82.10
29247;BME280;16272;48.188;9.964;2023-04-01T04:06:28;94617.94;;;6.41;80.82
29247;BME280;16272;48.188;9.964;2023-04-01T04:08:53;94613.41;;;6.34;81.20
29247;BME280;16272;48.188;9.964;2023-04-01T04:11:20;94614.34;;;6.24;81.06
29247;BME280;16272;48.188;9.964;2023-04-01T04:13:46;94620.03;;;5.94;81.68
29247;BME280;16272;48.188;9.964;2023-04-01T04:16:13;94623.56;;;6.02;81.52
29247;BME280;16272;48.188;9.964;2023-04-01T04:18:39;94614.16;;;6.00;80.99
29247;BME280;16272;48.188;9.964;2023-04-01T04:21:05;94609.78;;;6.09;80.45
29247;BME280;16272;48.188;9.964;2023-04-01T04:23:30;94611.25;;;6.55;78.43
29247;BME280;16272;48.188;9.964;2023-04-01T04:26:16;94617.69;;;6.09;79.97
29247;BME280;16272;48.188;9.964;2023-04-01T04:28:42;94604.63;;;6.25;78.36
29247;BME280;16272;48.188;9.964;2023-04-01T04:31:07;94604.47;;;6.00;79.91
29247;BME280;16272;48.188;9.964;2023-04-01T04:33:34;94610.00;;;6.15;79.58
29247;BME280;16272;48.188;9.964;2023-04-01T04:36:00;94615.66;;;6.02;80.26
29247;BME280;16272;48.188;9.964;2023-04-01T04:38:26;94616.53;;;5.93;80.07
29247;BME280;16272;48.188;9.964;2023-04-01T04:40:52;94616.78;;;5.82;80.16
29247;BME280;16272;48.188;9.964;2023-04-01T04:43:18;94624.91;;;6.06;79.56
29247;BME280;16272;48.188;9.964;2023-04-01T04:45:44;94617.09;;;5.97;80.18
29247;BME280;16272;48.188;9.964;2023-04-01T04:48:11;94619.56;;;5.80;81.03
29247;BME280;16272;48.188;9.964;2023-04-01T04:50:41;94616.59;;;6.19;79.40
29247;BME280;16272;48.188;9.964;2023-04-01T04:53:09;94620.19;;;6.10;79.85
29247;BME280;16272;48.188;9.964;2023-04-01T04:55:35;94621.53;;;6.40;78.78
29247;BME280;16272;48.188;9.964;2023-04-01T04:58:00;94619.34;;;6.36;79.18
29247;BME280;16272;48.188;9.964;2023-04-01T05:00:25;94615.91;;;6.35;78.65
29247;BME280;16272;48.188;9.964;2023-04-01T05:02:51;94618.56;;;6.17;80.25
29247;BME280;16272;48.188;9.964;2023-04-01T05:05:16;94628.94;;;6.37;80.08
29247;BME280;16272;48.188;9.964;2023-04-01T05:07:41;94623.75;;;6.27;79.78
29247;BME280;16272;48.188;9.964;2023-04-01T05:10:07;94632.97;;;6.49;78.73
29247;BME280;16272;48.188;9.964;2023-04-01T05:12:32;94626.41;;;6.27;79.45
29247;BME280;16272;48.188;9.964;2023-04-01T05:15:02;94631.31;;;6.48;78.99
29247;BME280;16272;48.188;9.964;2023-04-01T05:17:28;94628.78;;;6.38;79.33
29247;BME280;16272;48.188;9.964;2023-04-01T05:19:53;94623.25;;;6.50;78.50
29247;BME280;16272;48.188;9.964;2023-04-01T05:22:19;94619.63;;;6.51;78.38
29247;BME280;16272;48.188;9.964;2023-04-01T05:24:45;94619.66;;;6.59;78.87
29247;BME280;16272;48.188;9.964;2023-04-01T05:27:10;94617.22;;;6.39;80.12
29247;BME280;16272;48.188;9.964;2023-04-01T05:29:35;94628.31;;;6.43;80.25
29247;BME280;16272;48.188;9.964;2023-04-01T05:32:01;94617.56;;;6.62;79.84
29247;BME280;16272;48.188;9.964;2023-04-01T05:34:26;94619.91;;;6.74;78.96
29247;BME280;16272;48.188;9.964;2023-04-01T05:36:51;94616.09;;;6.68;79.13
29247;BME280;16272;48.188;9.964;2023-04-01T05:39:17;94626.88;;;6.49;79.62
29247;BME280;16272;48.188;9.964;2023-04-01T05:41:43;94619.34;;;6.62;79.39
29247;BME280;16272;48.188;9.964;2023-04-01T05:44:11;94624.59;;;6.54;78.80
29247;BME280;16272;48.188;9.964;2023-04-01T05:46:36;94615.59;;;6.65;77.81
29247;BME280;16272;48.188;9.964;2023-04-01T05:49:01;94631.88;;;6.60;78.04
29247;BME280;16272;48.188;9.964;2023-04-01T05:51:27;94627.78;;;6.66;78.17
29247;BME280;16272;48.188;9.964;2023-04-01T05:53:52;94620.44;;;6.77;77.84
29247;BME280;16272;48.188;9.964;2023-04-01T05:56:17;94625.53;;;7.05;75.45
29247;BME280;16272;48.188;9.964;2023-04-01T05:58:43;94622.81;;;6.89;76.37
29247;BME280;16272;48.188;9.964;2023-04-01T06:01:11;94617.03;;;6.59;77.04
29247;BME280;16272;48.188;9.964;2023-04-01T06:03:36;94613.88;;;6.90;76.17
29247;BME280;16272;48.188;9.964;2023-04-01T06:06:02;94619.41;;;6.70;75.90
29247;BME280;16272;48.188;9.964;2023-04-01T06:08:30;94613.41;;;6.94;75.08
29247;BME280;16272;48.188;9.964;2023-04-01T06:11:12;94623.13;;;6.86;76.11
29247;BME280;16272;48.188;9.964;2023-04-01T06:16:44;94616.59;;;7.06;74.56
29247;BME280;16272;48.188;9.964;2023-04-01T06:22:23;94615.31;;;7.10;74.17
29247;BME280;16272;48.188;9.964;2023-04-01T06:34:21;94633.28;;;7.58;74.09
29247;BME280;16272;48.188;9.964;2023-04-01T06:37:16;94623.22;;;7.61;73.46
29247;BME280;16272;48.188;9.964;2023-04-01T06:40:09;94622.41;;;7.18;74.73
29247;BME280;16272;48.188;9.964;2023-04-01T06:57:51;94610.72;;;7.21;74.65
29247;BME280;16272;48.188;9.964;2023-04-01T07:00:43;94620.06;;;7.58;74.08
29247;BME280;16272;48.188;9.964;2023-04-01T07:05:45;94618.41;;;7.57;73.50
29247;BME280;16272;48.188;9.964;2023-04-01T07:08:14;94611.63;;;7.62;73.70
29247;BME280;16272;48.188;9.964;2023-04-01T07:10:53;94617.59;;;7.64;72.95
29247;BME280;16272;48.188;9.964;2023-04-01T07:13:48;94613.75;;;7.42;74.92
29247;BME280;16272;48.188;9.964;2023-04-01T07:16:26;94619.38;;;7.55;73.05
29247;BME280;16272;48.188;9.964;2023-04-01T07:19:29;94611.28;;;7.57;73.61
29247;BME280;16272;48.188;9.964;2023-04-01T07:22:04;94629.66;;;7.75;74.42
29247;BME280;16272;48.188;9.964;2023-04-01T07:24:36;94623.41;;;7.84;73.35
29247;BME280;16272;48.188;9.964;2023-04-01T07:27:08;94626.53;;;7.80;73.82
29247;BME280;16272;48.188;9.964;2023-04-01T07:29:34;94613.31;;;8.21;72.99
29247;BME280;16272;48.188;9.964;2023-04-01T07:37:16;94617.41;;;8.81;71.68
29247;BME280;16272;48.188;9.964;2023-04-01T07:42:47;94636.31;;;8.61;71.77
29247;BME280;16272;48.188;9.964;2023-04-01T07:51:18;94624.81;;;8.94;69.98
29247;BME280;16272;48.188;9.964;2023-04-01T07:59:40;94626.56;;;8.45;70.34
29247;BME280;16272;48.188;9.964;2023-04-01T08:02:29;94617.19;;;9.38;68.08
29247;BME280;16272;48.188;9.964;2023-04-01T08:05:27;94624.06;;;8.44;68.28
29247;BME280;16272;48.188;9.964;2023-04-01T08:13:35;94614.00;;;9.74;68.16
29247;BME280;16272;48.188;9.964;2023-04-01T08:16:23;94619.16;;;9.45;67.64
29247;BME280;16272;48.188;9.964;2023-04-01T08:19:05;94616.78;;;8.29;69.66
29247;BME280;16272;48.188;9.964;2023-04-01T08:21:39;94614.19;;;9.02;68.07
29247;BME280;16272;48.188;9.964;2023-04-01T08:24:31;94617.78;;;8.53;68.20
29247;BME280;16272;48.188;9.964;2023-04-01T08:27:00;94622.78;;;9.04;69.39
29247;BME280;16272;48.188;9.964;2023-04-01T08:29:40;94621.06;;;8.72;68.48
29247;BME280;16272;48.188;9.964;2023-04-01T08:32:14;94619.19;;;9.36;68.53
29247;BME280;16272;48.188;9.964;2023-04-01T08:34:45;94620.63;;;9.08;68.61
29247;BME280;16272;48.188;9.964;2023-04-01T08:37:17;94623.81;;;8.87;69.93
29247;BME280;16272;48.188;9.964;2023-04-01T08:39:50;94617.34;;;8.97;68.17
29247;BME280;16272;48.188;9.964;2023-04-01T08:42:51;94611.06;;;8.90;70.26
29247;BME280;16272;48.188;9.964;2023-04-01T08:51:33;94610.81;;;8.60;68.13
29247;BME280;16272;48.188;9.964;2023-04-01T09:02:46;94618.69;;;8.85;69.27
29247;BME280;16272;48.188;9.964;2023-04-01T09:05:31;94610.28;;;9.21;68.13
29247;BME280;16272;48.188;9.964;2023-04-01T09:08:08;94619.44;;;8.62;69.88
29247;BME280;16272;48.188;9.964;2023-04-01T09:11:02;94617.69;;;8.94;68.58
29247;BME280;16272;48.188;9.964;2023-04-01T09:13:43;94624.06;;;8.52;69.22
29247;BME280;16272;48.188;9.964;2023-04-01T09:19:30;94613.16;;;8.14;69.23
29247;BME280;16272;48.188;9.964;2023-04-01T09:35:47;94626.38;;;8.39;72.35
29247;BME280;16272;48.188;9.964;2023-04-01T09:38:26;94621.25;;;8.54;70.66
29247;BME280;16272;48.188;9.964;2023-04-01T09:40:58;94636.31;;;8.45;70.92
29247;BME280;16272;48.188;9.964;2023-04-01T09:43:39;94626.84;;;8.42;71.01
29247;BME280;16272;48.188;9.964;2023-04-01T09:46:30;94615.47;;;8.42;69.72
29247;BME280;16272;48.188;9.964;2023-04-01T09:49:11;94625.41;;;8.56;70.37
29247;BME280;16272;48.188;9.964;2023-04-01T10:00:42;94639.47;;;8.49;69.75
29247;BME280;16272;48.188;9.964;2023-04-01T10:06:36;94632.50;;;8.56;68.61
29247;BME280;16272;48.188;9.964;2023-04-01T10:12:07;94646.56;;;8.64;68.50
29247;BME280;16272;48.188;9.964;2023-04-01T10:23:34;94636.59;;;8.75;68.62
29247;BME280;16272;48.188;9.964;2023-04-01T10:26:29;94640.59;;;8.54;69.57
29247;BME280;16272;48.188;9.964;2023-04-01T10:44:03;94630.38;;;8.51;68.10
29247;BME280;16272;48.188;9.964;2023-04-01T10:47:19;94648.19;;;8.57;68.79
29247;BME280;16272;48.188;9.964;2023-04-01T11:04:39;94631.72;;;9.03;70.23
29247;BME280;16272;48.188;9.964;2023-04-01T11:13:40;94628.63;;;8.91;71.14
29247;BME280;16272;48.188;9.964;2023-04-01T11:22:10;94636.25;;;8.86;72.54
29247;BME280;16272;48.188;9.964;2023-04-01T11:27:51;94650.63;;;8.92;70.85
29247;BME280;16272;48.188;9.964;2023-04-01T11:41:02;94668.03;;;8.04;77.82
29247;BME280;16272;48.188;9.964;2023-04-01T11:43:38;94662.72;;;7.79;77.16
29247;BME280;16272;48.188;9.964;2023-04-01T12:00:01;94659.47;;;8.59;74.92
29247;BME280;16272;48.188;9.964;2023-04-01T12:02:39;94667.41;;;8.18;76.74
29247;BME280;16272;48.188;9.964;2023-04-01T12:05:33;94669.03;;;8.27;76.85
29247;BME280;16272;48.188;9.964;2023-04-01T12:08:31;94661.09;;;8.27;76.13
29247;BME280;16272;48.188;9.964;2023-04-01T12:11:20;94645.84;;;8.95;74.86
29247;BME280;16272;48.188;9.964;2023-04-01T12:22:08;94664.03;;;8.90;75.56
29247;BME280;16272;48.188;9.964;2023-04-01T12:30:06;94661.94;;;8.61;74.77
29247;BME280;16272;48.188;9.964;2023-04-01T12:41:09;94664.88;;;9.38;71.79
29247;BME280;16272;48.188;9.964;2023-04-01T12:50:26;94660.44;;;8.67;71.09
29247;BME280;16272;48.188;9.964;2023-04-01T12:55:44;94672.84;;;8.74;70.28
29247;BME280;16272;48.188;9.964;2023-04-01T13:01:29;94660.94;;;8.70;71.50
29247;BME280;16272;48.188;9.964;2023-04-01T13:06:51;94670.34;;;8.81;70.83
29247;BME280;16272;48.188;9.964;2023-04-01T13:09:38;94663.41;;;8.72;70.52
29247;BME280;16272;48.188;9.964;2023-04-01T13:32:00;94665.28;;;9.19;71.89
29247;BME280;16272;48.188;9.964;2023-04-01T13:34:35;94682.06;;;9.43;71.57
29247;BME280;16272;48.188;9.964;2023-04-01T13:42:53;94681.47;;;9.32;70.22
29247;BME280;16272;48.188;9.964;2023-04-01T13:45:21;94686.50;;;9.11;71.57
29247;BME280;16272;48.188;9.964;2023-04-01T13:50:31;94681.25;;;8.94;71.44
29247;BME280;16272;48.188;9.964;2023-04-01T13:56:29;94687.94;;;9.30;71.69
29247;BME280;16272;48.188;9.964;2023-04-01T14:13:27;94680.78;;;9.38;67.51
29247;BME280;16272;48.188;9.964;2023-04-01T14:19:22;94674.66;;;9.38;67.56
29247;BME280;16272;48.188;9.964;2023-04-01T14:22:11;94675.88;;;9.59;67.12
29247;BME280;16272;48.188;9.964;2023-04-01T14:24:50;94673.06;;;9.91;65.48
29247;BME280;16272;48.188;9.964;2023-04-01T14:27:46;94689.72;;;10.08;65.61
29247;BME280;16272;48.188;9.964;2023-04-01T14:41:02;94691.16;;;9.88;67.11
29247;BME280;16272;48.188;9.964;2023-04-01T14:49:30;94697.47;;;10.41;64.61
29247;BME280;16272;48.188;9.964;2023-04-01T14:52:25;94693.66;;;10.59;64.04
29247;BME280;16272;48.188;9.964;2023-04-01T14:54:50;94694.78;;;9.87;66.16
29247;BME280;16272;48.188;9.964;2023-04-01T14:57:25;94703.81;;;10.55;65.13
29247;BME280;16272;48.188;9.964;2023-04-01T15:14:21;94718.56;;;9.24;69.05
29247;BME280;16272;48.188;9.964;2023-04-01T15:19:31;94696.09;;;9.91;67.45
29247;BME280;16272;48.188;9.964;2023-04-01T15:22:36;94705.81;;;9.67;66.44
29247;BME280;16272;48.188;9.964;2023-04-01T15:28:46;94711.75;;;9.38;67.12
29247;BME280;16272;48.188;9.964;2023-04-01T15:31:39;94711.56;;;9.48;68.01
29247;BME280;16272;48.188;9.964;2023-04-01T15:39:59;94710.16;;;9.60;67.10
29247;BME280;16272;48.188;9.964;2023-04-01T15:42:36;94712.38;;;9.88;66.12
29247;BME280;16272;48.188;9.964;2023-04-01T15:45:11;94720.78;;;9.60;67.89
29247;BME280;16272;48.188;9.964;2023-04-01T15:48:01;94720.53;;;9.38;67.13
29247;BME280;16272;48.188;9.964;2023-04-01T15:56:26;94722.00;;;9.41;66.82
29247;BME280;16272;48.188;9.964;2023-04-01T15:59:14;94735.81;;;9.20;67.70
29247;BME280;16272;48.188;9.964;2023-04-01T16:02:12;94722.47;;;8.97;67.95
29247;BME280;16272;48.188;9.964;2023-04-01T16:15:44;94750.09;;;8.78;68.93
29247;BME280;16272;48.188;9.964;2023-04-01T16:18:42;94748.13;;;8.80;69.17
29247;BME280;16272;48.188;9.964;2023-04-01T16:21:46;94750.56;;;8.98;69.21
29247;BME280;16272;48.188;9.964;2023-04-01T16:24:32;94742.16;;;8.78;70.17
29247;BME280;16272;48.188;9.964;2023-04-01T16:27:16;94748.75;;;8.82;70.73
29247;BME280;16272;48.188;9.964;2023-04-01T16:29:56;94758.38;;;8.91;69.98
29247;BME280;16272;48.188;9.964;2023-04-01T16:32:44;94750.59;;;8.90;70.08
29247;BME280;16272;48.188;9.964;2023-04-01T16:35:31;94738.19;;;8.65;70.87
29247;BME280;16272;48.188;9.964;2023-04-01T16:40:42;94745.72;;;9.26;70.10
29247;BME280;16272;48.188;9.964;2023-04-01T16:45:56;94741.00;;;8.80;72.88
29247;BME280;16272;48.188;9.964;2023-04-01T16:51:34;94740.50;;;8.69;71.07
29247;BME280;16272;48.188;9.964;2023-04-01T16:54:13;94751.06;;;8.93;70.79
29247;BME280;16272;48.188;9.964;2023-04-01T16:59:56;94743.13;;;8.85;70.93
29247;BME280;16272;48.188;9.964;2023-04-01T17:02:33;94749.63;;;8.66;71.67
29247;BME280;16272;48.188;9.964;2023-04-01T17:05:04;94756.53;;;8.92;69.82
29247;BME280;16272;48.188;9.964;2023-04-01T17:08:01;94766.97;;;8.60;71.41
29247;BME280;16272;48.188;9.964;2023-04-01T17:16:11;94748.28;;;8.78;70.95
29247;BME280;16272;48.188;9.964;2023-04-01T17:22:01;94752.44;;;8.48;71.70
29247;BME280;16272;48.188;9.964;2023-04-01T17:24:45;94749.75;;;8.40;71.03
29247;BME280;16272;48.188;9.964;2023-04-01T17:27:36;94745.16;;;8.50;71.05
29247;BME280;16272;48.188;9.964;2023-04-01T17:33:22;94753.25;;;8.49;70.80
29247;BME280;16272;48.188;9.964;2023-04-01T17:36:12;94745.72;;;8.11;73.15
29247;BME280;16272;48.188;9.964;2023-04-01T18:05:22;94775.44;;;7.97;73.82
29247;BME280;16272;48.188;9.964;2023-04-01T18:11:26;94786.38;;;8.02;72.56
29247;BME280;16272;48.188;9.964;2023-04-01T18:13:46;94787.19;;;8.02;71.92
29247;BME280;16272;48.188;9.964;2023-04-01T18:16:21;94789.69;;;8.12;71.95
29247;BME280;16272;48.188;9.964;2023-04-01T18:19:08;94800.56;;;8.01;72.45
29247;BME280;16272;48.188;9.964;2023-04-01T18:21:47;94803.13;;;7.76;73.92
29247;BME280;16272;48.188;9.964;2023-04-01T18:24:28;94806.00;;;7.91;73.75
29247;BME280;16272;48.188;9.964;2023-04-01T18:27:15;94809.16;;;8.03;72.74
29247;BME280;16272;48.188;9.964;2023-04-01T18:29:53;94818.63;;;7.71;74.10
29247;BME280;16272;48.188;9.964;2023-04-01T18:32:48;94821.97;;;7.81;72.80
29247;BME280;16272;48.188;9.964;2023-04-01T18:38:05;94830.13;;;7.62;74.50
29247;BME280;16272;48.188;9.964;2023-04-01T18:40:34;94824.69;;;7.98;73.20
29247;BME280;16272;48.188;9.964;2023-04-01T18:45:51;94828.00;;;7.65;72.78
29247;BME280;16272;48.188;9.964;2023-04-01T18:48:51;94835.81;;;7.75;72.89
29247;BME280;16272;48.188;9.964;2023-04-01T18:51:22;94839.44;;;7.66;73.64
29247;BME280;16272;48.188;9.964;2023-04-01T18:54:13;94842.69;;;7.33;74.31
29247;BME280;16272;48.188;9.964;2023-04-01T18:56:43;94846.22;;;7.42;74.59
29247;BME280;16272;48.188;9.964;2023-04-01T18:59:40;94851.28;;;7.62;73.52
29247;BME280;16272;48.188;9.964;2023-04-01T19:02:43;94852.59;;;7.58;73.42
29247;BME280;16272;48.188;9.964;2023-04-01T19:05:20;94858.50;;;7.25;74.78
29247;BME280;16272;48.188;9.964;2023-04-01T19:07:56;94859.16;;;7.27;74.80
29247;BME280;16272;48.188;9.964;2023-04-01T19:16:00;94859.75;;;7.21;74.83
29247;BME280;16272;48.188;9.964;2023-04-01T19:26:59;94867.94;;;7.10;74.67
29247;BME280;16272;48.188;9.964;2023-04-01T19:32:25;94870.22;;;6.69;76.21
29247;BME280;16272;48.188;9.964;2023-04-01T19:38:26;94872.47;;;6.99;74.71
29247;BME280;16272;48.188;9.964;2023-04-01T19:46:42;94877.75;;;6.63;75.89
29247;BME280;16272;48.188;9.964;2023-04-01T19:52:29;94881.13;;;6.56;76.21
29247;BME280;16272;48.188;9.964;2023-04-01T19:58:39;94888.75;;;6.77;75.58
29247;BME280;16272;48.188;9.964;2023-04-01T20:01:04;94889.06;;;6.74;75.71
29247;BME280;16272;48.188;9.964;2023-04-01T20:04:01;94889.41;;;6.89;75.65
29247;BME280;16272;48.188;9.964;2023-04-01T20:17:52;94910.66;;;6.87;75.85
29247;BME280;16272;48.188;9.964;2023-04-01T20:20:24;94907.09;;;7.14;73.89
29247;BME280;16272;48.188;9.964;2023-04-01T20:22:57;94910.44;;;6.80;75.14
29247;BME280;16272;48.188;9.964;2023-04-01T20:28:21;94907.78;;;6.80;76.00
29247;BME280;16272;48.188;9.964;2023-04-01T20:31:12;94917.34;;;6.81;76.34
29247;BME280;16272;48.188;9.964;2023-04-01T20:37:04;94916.22;;;6.84;75.64
29247;BME280;16272;48.188;9.964;2023-04-01T20:44:52;94914.53;;;6.47;77.41
29247;BME280;16272;48.188;9.964;2023-04-01T20:50:19;94926.00;;;6.74;76.85
29247;BME280;16272;48.188;9.964;2023-04-01T20:52:57;94935.19;;;6.52;77.02
29247;BME280;16272;48.188;9.964;2023-04-01T21:06:27;94939.19;;;6.56;77.16
29247;BME280;16272;48.188;9.964;2023-04-01T21:12:06;94943.88;;;6.62;77.50
29247;BME280;16272;48.188;9.964;2023-04-01T21:22:45;94960.22;;;6.20;79.05
29247;BME280;16272;48.188;9.964;2023-04-01T21:28:24;94967.09;;;6.31;77.85
29247;BME280;16272;48.188;9.964;2023-04-01T21:31:00;94960.38;;;6.09;79.51
29247;BME280;16272;48.188;9.964;2023-04-01T21:44:40;94973.31;;;6.02;80.71
29247;BME280;16272;48.188;9.964;2023-04-01T21:47:40;94970.72;;;5.82;81.13
29247;BME280;16272;48.188;9.964;2023-04-01T22:06:27;94982.72;;;5.95;79.83
29247;BME280;16272;48.188;9.964;2023-04-01T22:12:00;94995.06;;;5.94;80.19
29247;BME280;16272;48.188;9.964;2023-04-01T22:17:37;94998.53;;;5.95;80.28
29247;BME280;16272;48.188;9.964;2023-04-01T22:20:19;95004.38;;;5.98;79.90